ADDS METAR Data INFO
IDs: Format: Raw Decoded Include TAF

Data at: 1927 UTC 19 Jul 2018

KPBG 191853Z AUTO 14009KT 10SM CLR 26/11 A3006 RMK AO2 SLP180 T02560106
KPBG 191753Z AUTO 14008KT 10SM CLR 24/09 A3007 RMK AO2 SLP182 T02440089 10250 20161 56013
KPBG 191653Z AUTO 12007KT 10SM CLR 24/09 A3008 RMK AO2 SLP185 T02390089
KPBG 191553Z AUTO 12007KT 10SM CLR 23/09 A3009 RMK AO2 SLP190 T02280089
KPBG 191453Z AUTO 13009KT 10SM CLR 22/13 A3011 RMK AO2 SLP195 T02220128 51003
KPBG 191353Z AUTO 11005KT 10SM CLR 20/12 A3011 RMK AO2 SLP195 T02000122
KPBG 191253Z AUTO 00000KT 10SM CLR 19/10 A3011 RMK AO2 SLP194 T01940100
KPBG 191153Z AUTO 16004KT 10SM CLR 16/09 A3010 RMK AO2 SLP192 T01610094 10161 20078 51014
KPBG 191053Z AUTO 00000KT 10SM CLR 13/10 A3008 RMK AO2 SLP187 T01280100
KPBG 190953Z AUTO 18003KT 10SM CLR 09/08 A3008 RMK AO2 SLP186 T00940078
KPBG 190853Z AUTO 00000KT 10SM CLR 09/08 A3006 RMK AO2 SLP179 T00890078 53009
KPBG 190753Z AUTO 00000KT 10SM CLR 12/08 A3004 RMK AO2 SLP172 T01170078
KPBG 190653Z AUTO 22003KT 10SM CLR 12/08 A3004 RMK AO2 SLP171 T01220083
KPBG 190553Z AUTO 22004KT 10SM CLR 13/08 A3003 RMK AO2 SLP168 T01280083 10217 20100 53008
KPBG 190453Z AUTO 27003KT 10SM CLR 14/08 A3002 RMK AO2 SLP165 T01440083 402500139
KPBG 190353Z AUTO VRB03KT 10SM CLR 15/08 A3001 RMK AO2 SLP163 T01500078
KPBG 190253Z AUTO 28005KT 10SM CLR 16/07 A3001 RMK AO2 SLP161 T01610072 51009
KPBG 190153Z AUTO 26004KT 10SM CLR 17/07 A3000 RMK AO2 SLP160 T01720072
KPBG 190053Z AUTO 29003KT 10SM CLR 17/08 A2999 RMK AO2 SLP154 T01720083
KPBG 182353Z AUTO 33007KT 10SM CLR 21/06 A2998 RMK AO2 SLP151 T02110056 10250 20211 53004
KPBG 182253Z AUTO 33009KT 10SM CLR 23/05 A2997 RMK AO2 SLP150 T02280050
KPBG 182153Z AUTO 34012G16KT 10SM CLR 24/04 A2996 RMK AO2 SLP145 T02390044
KPBG 182053Z AUTO 33011KT 10SM CLR 24/03 A2997 RMK AO2 SLP147 T02390033 51001
KPBG 181953Z AUTO 36011G18KT 10SM CLR 24/04 A2997 RMK AO2 PK WND 32026/1930 WSHFT 1845 SLP147 T02390039
KPBG 181905Z AUTO 35014G20KT 10SM CLR 24/05 A2996 RMK AO2 WSHFT 1845 T02390050
KPBG 181853Z AUTO 35010G18KT 10SM CLR 24/04 A2997 RMK AO2 SLP147 T02440044
KPBG 181753Z AUTO 35011G16KT 10SM CLR 24/06 A2996 RMK AO2 SLP146 T02390056 10239 20183 57008
KPBG 181653Z AUTO 33009KT 10SM CLR 23/07 A2997 RMK AO2 SLP149 T02280067
KPBG 181553Z AUTO 30009KT 10SM CLR 22/07 A2998 RMK AO2 SLP152 T02220067
KPBG 181453Z AUTO 01009KT 10SM CLR 21/08 A2999 RMK AO2 SLP154 T02060078 52003
KPBG 181353Z AUTO 33009KT 10SM FEW049 20/07 A2999 RMK AO2 SLP154 T02000072
KPBG 181253Z AUTO 34010KT 10SM CLR 19/08 A2998 RMK AO2 SLP152 T01890083
KPBG 181153Z AUTO 31007KT 10SM CLR 18/09 A2998 RMK AO2 SLP151 T01830094 10189 20150 51017
KPBG 181053Z AUTO 31006KT 10SM CLR 16/09 A2997 RMK AO2 SLP148 T01610094
KPBG 180953Z AUTO 30006KT 10SM CLR 15/08 A2995 RMK AO2 SLP141 T01500083
KPBG 180853Z AUTO 33008KT 10SM FEW038 16/08 A2993 RMK AO2 SLP134 T01560083 51019
KPBG 180753Z AUTO 33009KT 10SM CLR 17/10 A2991 RMK AO2 SLP128 T01670100